Back to Top

Language: 

My Weather Underground Personal Weather Station Historical Data with Graphs...

Delerius Weather Station Historical Data
Daily Summary for December 19, 2017 Units:  English    Metric   Both
« Previous Day
Next Day »
Daily Weekly Monthly Yearly Custom
  High: Low: Average:
Temperature: 51.8 °F 34.3 °F 42.5 °F
Dew Point: 46.4 °F 33.0 °F 40.6 °F
Humidity: 97 % 78 % 93 %
Wind Speed: 9.0 mph 0.0 mph 1.4 mph
Wind Gust: 15.0 mph - -
Wind:- - WSW
Pressure: 30.51 in 30.46 in -
Precipitation: 0.00 in    
Historical Graphs
 
 
Tabular Data for December 19, 2017
Time Temperature Dew Point Pressure Wind Wind Speed Wind Gust Humidity Rainfall Rate (Hourly) solar Conditions
00:02 38.8 °F 37.8 °F 30.46 in Calm   1.0 mph 96 % 0.00 in 0 W/m2
00:07 39.0 °F 38.0 °F 30.46 in Calm     96 % 0.00 in 0 W/m2
00:08 39.0 °F 38.0 °F 30.46 in Calm     96 % 0.00 in 0 W/m2
00:13 38.8 °F 37.8 °F 30.46 in Calm     96 % 0.00 in 0 W/m2
00:18 38.8 °F 37.8 °F 30.46 in Calm     96 % 0.00 in 0 W/m2
00:19 38.8 °F 37.8 °F 30.46 in Calm     96 % 0.00 in 0 W/m2
00:24 39.0 °F 38.0 °F 30.46 in Calm     96 % 0.00 in 0 W/m2
00:25 39.0 °F 38.0 °F 30.46 in Calm     96 % 0.00 in 0 W/m2
00:30 39.0 °F 38.0 °F 30.46 in Calm     96 % 0.00 in 0 W/m2
00:35 38.8 °F 37.5 °F 30.46 in Calm     95 % 0.00 in 0 W/m2
00:40 38.5 °F 37.2 °F 30.46 in Calm     95 % 0.00 in 0 W/m2
00:42 38.5 °F 37.2 °F 30.46 in Calm     95 % 0.00 in 0 W/m2
00:47 38.5 °F 37.2 °F 30.46 in Calm     95 % 0.00 in 0 W/m2
00:48 38.5 °F 37.2 °F 30.46 in Calm     95 % 0.00 in 0 W/m2
00:53 38.5 °F 37.2 °F 30.46 in Calm     95 % 0.00 in 0 W/m2
00:54 38.5 °F 37.2 °F 30.46 in Calm     95 % 0.00 in 0 W/m2
00:59 38.7 °F 37.6 °F 30.46 in Calm     96 % 0.00 in 0 W/m2
01:04 38.7 °F 37.6 °F 30.46 in Calm     96 % 0.00 in 0 W/m2
01:09 38.5 °F 37.2 °F 30.46 in Calm     95 % 0.00 in 0 W/m2
01:14 38.1 °F 36.8 °F 30.47 in Calm     95 % 0.00 in 0 W/m2
01:19 37.8 °F 36.5 °F 30.47 in Calm     95 % 0.00 in 0 W/m2
01:20 37.8 °F 36.5 °F 30.47 in Calm     95 % 0.00 in 0 W/m2
01:25 37.6 °F 36.3 °F 30.47 in Calm     95 % 0.00 in 0 W/m2
01:26 37.4 °F 36.1 °F 30.47 in Calm     95 % 0.00 in 0 W/m2
01:31 37.4 °F 36.1 °F 30.47 in Calm     95 % 0.00 in 0 W/m2
01:36 37.4 °F 36.1 °F 30.47 in Calm     95 % 0.00 in 0 W/m2
01:39 37.4 °F 36.1 °F 30.47 in Calm     95 % 0.00 in 0 W/m2
01:41 37.6 °F 36.3 °F 30.47 in Calm     95 % 0.00 in 0 W/m2
01:44 37.6 °F 36.3 °F 30.47 in Calm     95 % 0.00 in 0 W/m2
01:50 37.6 °F 36.3 °F 30.47 in Calm   2.0 mph 95 % 0.00 in 0 W/m2
01:55 37.6 °F 36.3 °F 30.47 in Calm     95 % 0.00 in 0 W/m2
01:56 37.6 °F 36.3 °F 30.47 in Calm     95 % 0.00 in 0 W/m2
01:57 37.6 °F 36.3 °F 30.47 in Calm     95 % 0.00 in 0 W/m2
02:02 37.8 °F 36.5 °F 30.47 in NNW 1.0 mph 2.0 mph 95 % 0.00 in 0 W/m2
02:03 37.8 °F 36.7 °F 30.47 in NNW 1.0 mph 3.0 mph 96 % 0.00 in 0 W/m2
02:05 37.9 °F 36.9 °F 30.47 in NNW 2.0 mph 5.0 mph 96 % 0.00 in 0 W/m2
02:10 38.1 °F 37.1 °F 30.47 in NNW 1.0 mph 4.0 mph 96 % 0.00 in 0 W/m2
02:11 38.1 °F 37.1 °F 30.47 in NNW 1.0 mph 3.0 mph 96 % 0.00 in 0 W/m2
02:16 38.1 °F 36.8 °F 30.47 in Calm     95 % 0.00 in 0 W/m2
02:18 38.1 °F 36.8 °F 30.47 in Calm     95 % 0.00 in 0 W/m2
02:19 38.1 °F 36.8 °F 30.47 in Calm     95 % 0.00 in 0 W/m2
02:24 38.1 °F 36.8 °F 30.47 in Calm   1.0 mph 95 % 0.00 in 0 W/m2
02:28 37.9 °F 36.6 °F 30.47 in Calm     95 % 0.00 in 0 W/m2
02:31 37.8 °F 36.5 °F 30.47 in Calm     95 % 0.00 in 0 W/m2
02:36 37.2 °F 35.7 °F 30.47 in Calm     94 % 0.00 in 0 W/m2
02:37 37.0 °F 35.5 °F 30.47 in Calm     94 % 0.00 in 0 W/m2
02:42 36.5 °F 34.9 °F 30.47 in Calm   1.0 mph 94 % 0.00 in 0 W/m2
02:47 36.3 °F 35.0 °F 30.47 in Calm   2.0 mph 95 % 0.00 in 0 W/m2
02:49 36.5 °F 35.2 °F 30.47 in Calm   1.0 mph 95 % 0.00 in 0 W/m2
02:50 36.7 °F 35.4 °F 30.47 in Calm     95 % 0.00 in 0 W/m2
02:54 36.7 °F 35.4 °F 30.47 in Calm     95 % 0.00 in 0 W/m2
02:59 36.7 °F 35.4 °F 30.47 in Calm     95 % 0.00 in 0 W/m2
03:02 36.7 °F 35.4 °F 30.47 in Calm     95 % 0.00 in 0 W/m2
03:06 36.3 °F 34.8 °F 30.47 in WNW 1.0 mph 3.0 mph 94 % 0.00 in 0 W/m2
03:09 36.3 °F 34.8 °F 30.47 in WNW 2.0 mph 5.0 mph 94 % 0.00 in 0 W/m2
03:15 36.0 °F 34.4 °F 30.47 in Calm   2.0 mph 94 % 0.00 in 0 W/m2
03:20 35.4 °F 33.9 °F 30.46 in WNW 1.0 mph 2.0 mph 94 % 0.00 in 0 W/m2
03:25 34.9 °F 33.3 °F 30.46 in WNW 1.0 mph 4.0 mph 94 % 0.00 in 0 W/m2
03:29 34.9 °F 33.3 °F 30.46 in WNW 1.0 mph 4.0 mph 94 % 0.00 in 0 W/m2
03:34 34.5 °F 33.0 °F 30.46 in Calm   2.0 mph 94 % 0.00 in 0 W/m2
03:37 34.5 °F 33.0 °F 30.46 in Calm     94 % 0.00 in 0 W/m2
03:41 34.7 °F 33.4 °F 30.47 in WNW 1.0 mph 3.0 mph 95 % 0.00 in 0 W/m2
03:46 34.9 °F 33.6 °F 30.47 in Calm   2.0 mph 95 % 0.00 in 0 W/m2
03:48 35.1 °F 33.8 °F 30.47 in WNW 1.0 mph 2.0 mph 95 % 0.00 in 0 W/m2
03:51 35.1 °F 33.8 °F 30.47 in Calm     95 % 0.00 in 0 W/m2
03:53 35.1 °F 33.8 °F 30.47 in Calm     95 % 0.00 in 0 W/m2
03:55 35.1 °F 33.8 °F 30.47 in Calm     95 % 0.00 in 0 W/m2
03:58 35.1 °F 33.8 °F 30.47 in Calm     95 % 0.00 in 0 W/m2
04:02 35.2 °F 34.0 °F 30.47 in Calm     95 % 0.00 in 0 W/m2
04:05 35.2 °F 34.0 °F 30.47 in Calm     95 % 0.00 in 0 W/m2
04:09 35.2 °F 34.0 °F 30.47 in Calm     95 % 0.00 in 0 W/m2
04:11 35.2 °F 34.0 °F 30.47 in Calm     95 % 0.00 in 0 W/m2
04:14 35.4 °F 34.4 °F 30.47 in Calm     96 % 0.00 in 0 W/m2
04:19 36.0 °F 34.9 °F 30.47 in Calm     96 % 0.00 in 0 W/m2
04:24 36.1 °F 35.1 °F 30.47 in Calm     96 % 0.00 in 0 W/m2
04:25 36.1 °F 35.1 °F 30.47 in Calm     96 % 0.00 in 0 W/m2
04:27 36.1 °F 35.1 °F 30.47 in Calm     96 % 0.00 in 0 W/m2
04:32 36.1 °F 35.1 °F 30.47 in Calm     96 % 0.00 in 0 W/m2
04:34 36.1 °F 35.1 °F 30.47 in Calm   2.0 mph 96 % 0.00 in 0 W/m2
04:40 36.3 °F 35.3 °F 30.47 in Calm     96 % 0.00 in 0 W/m2
04:41 36.3 °F 35.3 °F 30.48 in Calm     96 % 0.00 in 0 W/m2
04:42 36.5 °F 35.5 °F 30.47 in Calm     96 % 0.00 in 0 W/m2
04:46 36.7 °F 35.6 °F 30.47 in Calm     96 % 0.00 in 0 W/m2
04:51 36.9 °F 35.8 °F 30.47 in Calm     96 % 0.00 in 0 W/m2
04:56 37.0 °F 36.0 °F 30.47 in Calm     96 % 0.00 in 0 W/m2
04:58 37.0 °F 36.0 °F 30.47 in Calm   1.0 mph 96 % 0.00 in 0 W/m2
05:03 37.0 °F 36.0 °F 30.47 in Calm     96 % 0.00 in 0 W/m2
05:06 37.2 °F 36.2 °F 30.47 in Calm     96 % 0.00 in 0 W/m2
05:10 37.2 °F 36.2 °F 30.47 in Calm     96 % 0.00 in 0 W/m2
05:12 37.4 °F 36.4 °F 30.47 in Calm     96 % 0.00 in 0 W/m2
05:15 37.6 °F 36.5 °F 30.47 in Calm   1.0 mph 96 % 0.00 in 0 W/m2
05:17 37.6 °F 36.5 °F 30.47 in Calm     96 % 0.00 in 0 W/m2
05:22 37.6 °F 36.5 °F 30.47 in Calm     96 % 0.00 in 0 W/m2
05:23 37.6 °F 36.5 °F 30.47 in Calm     96 % 0.00 in 0 W/m2
05:28 37.6 °F 36.5 °F 30.48 in Calm     96 % 0.00 in 0 W/m2
05:29 37.6 °F 36.5 °F 30.48 in Calm     96 % 0.00 in 0 W/m2
05:30 37.4 °F 36.4 °F 30.48 in Calm     96 % 0.00 in 0 W/m2
05:35 37.2 °F 36.2 °F 30.47 in Calm     96 % 0.00 in 0 W/m2
05:40 37.2 °F 36.2 °F 30.47 in Calm     96 % 0.00 in 0 W/m2
05:41 37.2 °F 36.2 °F 30.47 in Calm     96 % 0.00 in 0 W/m2
05:43 37.2 °F 36.2 °F 30.47 in Calm     96 % 0.00 in 0 W/m2
05:48 37.2 °F 36.2 °F 30.47 in Calm     96 % 0.00 in 0 W/m2
05:51 37.0 °F 35.7 °F 30.47 in Calm     95 % 0.00 in 0 W/m2
05:55 37.0 °F 36.0 °F 30.47 in Calm     96 % 0.00 in 0 W/m2
05:57 37.0 °F 35.7 °F 30.47 in Calm     95 % 0.00 in 0 W/m2
06:02 36.9 °F 35.6 °F 30.47 in Calm     95 % 0.00 in 0 W/m2
06:04 36.9 °F 35.6 °F 30.47 in Calm     95 % 0.00 in 0 W/m2
06:09 36.7 °F 35.4 °F 30.47 in Calm     95 % 0.00 in 0 W/m2
06:10 36.5 °F 35.2 °F 30.47 in Calm     95 % 0.00 in 0 W/m2
06:12 36.5 °F 35.2 °F 30.47 in Calm     95 % 0.00 in 0 W/m2
06:15 36.3 °F 35.0 °F 30.47 in Calm     95 % 0.00 in 0 W/m2
06:20 36.3 °F 35.0 °F 30.47 in Calm     95 % 0.00 in 0 W/m2
06:23 36.3 °F 35.0 °F 30.47 in Calm     95 % 0.00 in 0 W/m2
06:25 36.1 °F 34.8 °F 30.48 in Calm     95 % 0.00 in 0 W/m2
06:30 36.1 °F 34.8 °F 30.48 in Calm     95 % 0.00 in 0 W/m2
06:33 36.0 °F 34.7 °F 30.48 in Calm     95 % 0.00 in 0 W/m2
06:35 36.0 °F 34.7 °F 30.48 in Calm     95 % 0.00 in 0 W/m2
06:40 35.8 °F 34.5 °F 30.48 in Calm     95 % 0.00 in 0 W/m2
06:44 35.6 °F 34.3 °F 30.48 in Calm     95 % 0.00 in 0 W/m2
06:46 35.6 °F 34.3 °F 30.48 in Calm     95 % 0.00 in 0 W/m2
06:49 35.4 °F 34.1 °F 30.48 in Calm     95 % 0.00 in 0 W/m2
06:51 35.4 °F 34.1 °F 30.48 in Calm     95 % 0.00 in 0 W/m2
06:52 35.4 °F 34.1 °F 30.48 in Calm     95 % 0.00 in 0 W/m2
06:57 35.4 °F 34.1 °F 30.48 in Calm     95 % 0.00 in 0 W/m2
06:59 35.4 °F 34.1 °F 30.48 in Calm     95 % 0.00 in 0 W/m2
07:01 35.4 °F 34.1 °F 30.48 in Calm     95 % 0.00 in 0 W/m2
07:06 35.4 °F 34.4 °F 30.48 in Calm     96 % 0.00 in 0 W/m2
07:11 35.4 °F 34.1 °F 30.48 in Calm   1.0 mph 95 % 0.00 in 0 W/m2
07:14 35.4 °F 34.4 °F 30.48 in Calm   2.0 mph 96 % 0.00 in 0 W/m2
07:19 35.4 °F 34.1 °F 30.48 in Calm     95 % 0.00 in 0 W/m2
07:20 35.4 °F 34.1 °F 30.48 in Calm     95 % 0.00 in 0 W/m2
07:25 35.1 °F 33.8 °F 30.48 in Calm     95 % 0.00 in 0 W/m2
07:26 34.9 °F 33.6 °F 30.49 in Calm     95 % 0.00 in 0 W/m2
07:29 34.9 °F 33.6 °F 30.49 in Calm     95 % 0.00 in 0 W/m2
07:32 34.7 °F 33.4 °F 30.49 in Calm   1.0 mph 95 % 0.00 in 0 W/m2
07:37 34.7 °F 33.4 °F 30.49 in Calm     95 % 0.00 in 0 W/m2
07:38 34.7 °F 33.4 °F 30.49 in Calm     95 % 0.00 in 0 W/m2
07:43 34.5 °F 33.2 °F 30.49 in Calm     95 % 0.00 in 0 W/m2
07:45 34.5 °F 33.2 °F 30.49 in Calm     95 % 0.00 in 0 W/m2
07:50 34.5 °F 33.2 °F 30.49 in WNW 1.0 mph 1.0 mph 95 % 0.00 in 0 W/m2
07:54 34.5 °F 33.2 °F 30.49 in Calm     95 % 0.00 in 0 W/m2
07:59 34.5 °F 33.2 °F 30.49 in Calm     95 % 0.00 in 0 W/m2
08:01 34.5 °F 33.2 °F 30.49 in Calm   1.0 mph 95 % 0.00 in 0 W/m2
08:03 34.5 °F 33.2 °F 30.49 in WNW 1.0 mph 3.0 mph 95 % 0.00 in 0 W/m2
08:08 34.3 °F 33.1 °F 30.49 in Calm     95 % 0.00 in 0 W/m2
08:10 34.3 °F 33.3 °F 30.50 in Calm   1.0 mph 96 % 0.00 in 5 W/m2
08:15 34.5 °F 33.5 °F 30.50 in Calm     96 % 0.00 in 0 W/m2
08:19 34.3 °F 33.3 °F 30.50 in Calm     96 % 0.00 in 5 W/m2
08:24 34.3 °F 33.3 °F 30.50 in Calm     96 % 0.00 in 7 W/m2
08:26 34.3 °F 33.3 °F 30.50 in Calm     96 % 0.00 in 7 W/m2
08:29 34.3 °F 33.3 °F 30.50 in Calm     96 % 0.00 in 11 W/m2
08:34 34.3 °F 33.3 °F 30.50 in Calm   2.0 mph 96 % 0.00 in 18 W/m2
08:38 34.3 °F 33.3 °F 30.50 in Calm     96 % 0.00 in 21 W/m2
08:41 34.5 °F 33.5 °F 30.50 in Calm     96 % 0.00 in 23 W/m2
08:43 34.5 °F 33.5 °F 30.50 in Calm     96 % 0.00 in 25 W/m2
08:48 34.5 °F 33.5 °F 30.50 in Calm   2.0 mph 96 % 0.00 in 26 W/m2
08:53 34.9 °F 33.9 °F 30.50 in Calm     96 % 0.00 in 30 W/m2
08:57 34.9 °F 33.9 °F 30.50 in Calm   3.0 mph 96 % 0.00 in 32 W/m2
08:58 35.1 °F 34.0 °F 30.50 in Calm   3.0 mph 96 % 0.00 in 33 W/m2
09:03 35.2 °F 34.2 °F 30.50 in West 1.0 mph 5.0 mph 96 % 0.00 in 37 W/m2
09:04 35.2 °F 34.2 °F 30.50 in West 1.0 mph 5.0 mph 96 % 0.00 in 39 W/m2
09:05 35.2 °F 34.2 °F 30.50 in Calm   1.0 mph 96 % 0.00 in 40 W/m2
09:10 35.4 °F 34.4 °F 30.50 in Calm     96 % 0.00 in 51 W/m2
09:15 35.6 °F 34.6 °F 30.50 in Calm   2.0 mph 96 % 0.00 in 58 W/m2
09:17 35.8 °F 34.8 °F 30.50 in Calm     96 % 0.00 in 56 W/m2
09:22 36.0 °F 34.9 °F 30.50 in Calm     96 % 0.00 in 58 W/m2
09:23 36.0 °F 34.9 °F 30.50 in Calm     96 % 0.00 in 72 W/m2
09:25 36.1 °F 35.1 °F 30.50 in Calm     96 % 0.00 in 91 W/m2
09:28 36.3 °F 35.6 °F 30.50 in Calm     97 % 0.00 in 54 W/m2
09:32 36.3 °F 35.3 °F 30.50 in Calm     96 % 0.00 in 84 W/m2
09:33 36.5 °F 35.5 °F 30.51 in Calm     96 % 0.00 in 98 W/m2
09:38 36.7 °F 35.9 °F 30.51 in Calm     97 % 0.00 in 111 W/m2
09:40 36.9 °F 36.1 °F 30.51 in Calm     97 % 0.00 in 84 W/m2
09:45 37.2 °F 36.4 °F 30.51 in Calm     97 % 0.00 in 39 W/m2
09:47 37.4 °F 36.6 °F 30.51 in Calm     97 % 0.00 in 42 W/m2
09:52 37.8 °F 37.0 °F 30.51 in Calm     97 % 0.00 in 58 W/m2
09:53 37.8 °F 37.0 °F 30.51 in Calm     97 % 0.00 in 58 W/m2
09:58 37.8 °F 37.0 °F 30.50 in Calm     97 % 0.00 in 81 W/m2
10:01 37.8 °F 36.7 °F 30.51 in Calm     96 % 0.00 in 79 W/m2
10:03 37.8 °F 36.7 °F 30.50 in Calm     96 % 0.00 in 167 W/m2
10:06 37.9 °F 36.9 °F 30.50 in North 1.0 mph 2.0 mph 96 % 0.00 in 100 W/m2
10:10 38.5 °F 37.7 °F 30.50 in Calm     97 % 0.00 in 181 W/m2
10:14 39.0 °F 38.2 °F 30.50 in Calm     97 % 0.00 in 176 W/m2
10:19 39.7 °F 39.0 °F 30.51 in Calm     97 % 0.00 in 105 W/m2
10:24 40.3 °F 39.5 °F 30.51 in Calm     97 % 0.00 in 44 W/m2
10:29 40.6 °F 39.9 °F 30.51 in Calm     97 % 0.00 in 35 W/m2
10:34 40.6 °F 39.9 °F 30.51 in Calm     97 % 0.00 in 30 W/m2
10:35 40.6 °F 39.9 °F 30.51 in Calm     97 % 0.00 in 30 W/m2
10:40 40.5 °F 39.4 °F 30.51 in Calm     96 % 0.00 in 28 W/m2
10:45 40.1 °F 38.8 °F 30.51 in Calm     95 % 0.00 in 26 W/m2
10:46 39.9 °F 38.6 °F 30.51 in Calm     95 % 0.00 in 26 W/m2
10:51 39.4 °F 37.8 °F 30.50 in Calm     94 % 0.00 in 25 W/m2
10:52 39.4 °F 37.8 °F 30.50 in Calm     94 % 0.00 in 25 W/m2
10:55 39.0 °F 37.4 °F 30.51 in Calm     94 % 0.00 in 26 W/m2
11:00 38.8 °F 37.3 °F 30.51 in Calm     94 % 0.00 in 26 W/m2
11:05 38.7 °F 37.4 °F 30.51 in Calm   2.0 mph 95 % 0.00 in 72 W/m2
11:08 38.5 °F 37.2 °F 30.50 in NNW 3.0 mph 5.0 mph 95 % 0.00 in 123 W/m2
11:10 38.5 °F 37.2 °F 30.50 in NNW 4.0 mph 5.0 mph 95 % 0.00 in 156 W/m2
11:15 38.8 °F 37.5 °F 30.50 in Calm   1.0 mph 95 % 0.00 in 199 W/m2
11:16 39.0 °F 38.0 °F 30.50 in Calm     96 % 0.00 in 213 W/m2
11:20 39.6 °F 38.5 °F 30.50 in Calm     96 % 0.00 in 183 W/m2
11:23 39.7 °F 38.7 °F 30.50 in Calm     96 % 0.00 in 221 W/m2
11:28 40.6 °F 39.6 °F 30.50 in Calm     96 % 0.00 in 185 W/m2
11:32 41.0 °F 39.9 °F 30.50 in Calm     96 % 0.00 in 232 W/m2
11:37 41.5 °F 40.5 °F 30.50 in Calm   1.0 mph 96 % 0.00 in 251 W/m2
11:42 42.1 °F 41.0 °F 30.49 in Calm     96 % 0.00 in 253 W/m2
11:44 42.4 °F 41.4 °F 30.49 in Calm     96 % 0.00 in 243 W/m2
11:49 43.5 °F 42.5 °F 30.49 in Calm   2.0 mph 96 % 0.00 in 250 W/m2
11:50 43.5 °F 42.5 °F 30.49 in Calm     96 % 0.00 in 250 W/m2
11:55 44.1 °F 42.7 °F 30.49 in Calm   1.0 mph 95 % 0.00 in 253 W/m2
11:56 44.2 °F 42.9 °F 30.49 in Calm   1.0 mph 95 % 0.00 in 253 W/m2
12:01 45.0 °F 43.6 °F 30.49 in Calm     95 % 0.00 in 260 W/m2
12:07 46.0 °F 44.4 °F 30.48 in Calm     94 % 0.00 in 258 W/m2
12:08 46.2 °F 44.6 °F 30.48 in Calm     94 % 0.00 in 258 W/m2
12:13 47.1 °F 45.2 °F 30.48 in SSE 3.0 mph 5.0 mph 93 % 0.00 in 262 W/m2
12:18 47.5 °F 44.7 °F 30.48 in SE 2.0 mph 4.0 mph 90 % 0.00 in 271 W/m2
12:19 47.5 °F 44.4 °F 30.48 in SE 2.0 mph 4.0 mph 89 % 0.00 in 269 W/m2
12:24 47.5 °F 43.8 °F 30.48 in ESE 1.0 mph 2.0 mph 87 % 0.00 in 265 W/m2
12:30 47.8 °F 44.2 °F 30.48 in Calm   3.0 mph 87 % 0.00 in 264 W/m2
12:32 48.0 °F 44.6 °F 30.48 in Calm   1.0 mph 88 % 0.00 in 264 W/m2
12:35 48.4 °F 45.0 °F 30.48 in Calm     88 % 0.00 in 258 W/m2
12:40 49.3 °F 45.6 °F 30.48 in Calm   2.0 mph 87 % 0.00 in 244 W/m2
12:43 49.6 °F 45.9 °F 30.48 in Calm   2.0 mph 87 % 0.00 in 243 W/m2
12:46 50.2 °F 46.2 °F 30.48 in Calm     86 % 0.00 in 239 W/m2
12:51 50.9 °F 46.2 °F 30.48 in SSE 1.0 mph 3.0 mph 84 % 0.00 in 236 W/m2
12:53 50.9 °F 46.2 °F 30.48 in Calm   1.0 mph 84 % 0.00 in 234 W/m2
12:58 51.3 °F 46.3 °F 30.48 in Calm   1.0 mph 83 % 0.00 in 227 W/m2
13:01 51.3 °F 46.3 °F 30.48 in Calm   2.0 mph 83 % 0.00 in 223 W/m2
13:06 51.6 °F 46.3 °F 30.48 in SSE 2.0 mph 5.0 mph 82 % 0.00 in 214 W/m2
13:11 51.6 °F 46.0 °F 30.47 in ESE 2.0 mph 4.0 mph 81 % 0.00 in 206 W/m2
13:12 51.6 °F 46.3 °F 30.47 in ESE 2.0 mph 4.0 mph 82 % 0.00 in 206 W/m2
13:13 51.6 °F 46.3 °F 30.47 in ESE 2.0 mph 4.0 mph 82 % 0.00 in 204 W/m2
13:18 51.4 °F 45.8 °F 30.48 in East 2.0 mph 4.0 mph 81 % 0.00 in 195 W/m2
13:23 51.4 °F 45.8 °F 30.48 in East 1.0 mph 3.0 mph 81 % 0.00 in 192 W/m2
13:24 51.4 °F 46.1 °F 30.48 in East 1.0 mph 3.0 mph 82 % 0.00 in 190 W/m2
13:29 51.4 °F 45.8 °F 30.48 in East 1.0 mph 2.0 mph 81 % 0.00 in 193 W/m2
13:30 51.4 °F 45.8 °F 30.48 in East 1.0 mph 2.0 mph 81 % 0.00 in 193 W/m2
13:33 51.4 °F 45.8 °F 30.48 in East 2.0 mph 4.0 mph 81 % 0.00 in 171 W/m2
13:35 51.6 °F 45.7 °F 30.48 in East 1.0 mph 4.0 mph 80 % 0.00 in 130 W/m2
13:40 51.6 °F 45.7 °F 30.47 in East 1.0 mph 2.0 mph 80 % 0.00 in 178 W/m2
13:41 51.6 °F 45.7 °F 30.47 in East 1.0 mph 2.0 mph 80 % 0.00 in 176 W/m2
13:46 51.6 °F 45.7 °F 30.48 in East 1.0 mph 3.0 mph 80 % 0.00 in 181 W/m2
13:50 51.6 °F 46.0 °F 30.48 in East 1.0 mph 3.0 mph 81 % 0.00 in 174 W/m2
13:55 51.8 °F 45.5 °F 30.48 in ESE 2.0 mph 4.0 mph 79 % 0.00 in 37 W/m2
13:56 51.8 °F 45.5 °F 30.48 in ESE 2.0 mph 4.0 mph 79 % 0.00 in 32 W/m2
13:58 51.6 °F 45.0 °F 30.48 in ESE 3.0 mph 6.0 mph 78 % 0.00 in 25 W/m2
14:00 51.4 °F 44.8 °F 30.48 in ESE 4.0 mph 6.0 mph 78 % 0.00 in 23 W/m2
14:03 50.5 °F 43.9 °F 30.48 in East 1.0 mph 5.0 mph 78 % 0.00 in 25 W/m2
14:08 49.8 °F 43.6 °F 30.48 in Calm   2.0 mph 79 % 0.00 in 23 W/m2
14:09 49.8 °F 43.6 °F 30.48 in Calm   1.0 mph 79 % 0.00 in 21 W/m2
14:14 49.3 °F 43.7 °F 30.48 in Calm     81 % 0.00 in 19 W/m2
14:19 49.1 °F 43.8 °F 30.48 in Calm     82 % 0.00 in 81 W/m2
14:24 49.3 °F 44.3 °F 30.48 in South 1.0 mph 3.0 mph 83 % 0.00 in 132 W/m2
14:29 49.3 °F 44.3 °F 30.48 in Calm   1.0 mph 83 % 0.00 in 98 W/m2
14:32 49.3 °F 44.0 °F 30.48 in Calm   1.0 mph 82 % 0.00 in 76 W/m2
14:37 49.5 °F 44.2 °F 30.48 in Calm     82 % 0.00 in 88 W/m2
14:38 49.5 °F 44.2 °F 30.48 in Calm     82 % 0.00 in 88 W/m2
14:43 49.6 °F 44.4 °F 30.48 in Calm   2.0 mph 82 % 0.00 in 81 W/m2
14:48 49.8 °F 44.5 °F 30.48 in Calm   2.0 mph 82 % 0.00 in 70 W/m2
14:49 49.8 °F 44.5 °F 30.48 in Calm   2.0 mph 82 % 0.00 in 70 W/m2
14:55 49.6 °F 44.4 °F 30.48 in WSW 1.0 mph 2.0 mph 82 % 0.00 in 35 W/m2
14:56 49.6 °F 44.7 °F 30.48 in WSW 1.0 mph 3.0 mph 83 % 0.00 in 26 W/m2
15:01 49.6 °F 45.0 °F 30.48 in West 1.0 mph 4.0 mph 84 % 0.00 in 19 W/m2
15:04 49.6 °F 45.3 °F 30.48 in West 3.0 mph 7.0 mph 85 % 0.00 in 18 W/m2
15:09 49.6 °F 45.9 °F 30.48 in West 6.0 mph 8.0 mph 87 % 0.00 in 18 W/m2
15:14 49.6 °F 45.9 °F 30.48 in West 5.0 mph 7.0 mph 87 % 0.00 in 14 W/m2
15:15 49.6 °F 45.9 °F 30.48 in WNW 5.0 mph 7.0 mph 87 % 0.00 in 14 W/m2
15:20 49.5 °F 46.1 °F 30.48 in West 5.0 mph 6.0 mph 88 % 0.00 in 12 W/m2
15:22 49.5 °F 46.1 °F 30.48 in West 5.0 mph 7.0 mph 88 % 0.00 in 12 W/m2
15:24 49.5 °F 46.1 °F 30.48 in West 5.0 mph 6.0 mph 88 % 0.00 in 12 W/m2
15:29 49.3 °F 45.9 °F 30.48 in West 6.0 mph 8.0 mph 88 % 0.00 in 11 W/m2
15:30 49.3 °F 46.2 °F 30.48 in West 5.0 mph 8.0 mph 89 % 0.00 in 9 W/m2
15:33 49.1 °F 46.0 °F 30.49 in WSW 6.0 mph 8.0 mph 89 % 0.00 in 9 W/m2
15:38 48.9 °F 45.8 °F 30.49 in West 2.0 mph 6.0 mph 89 % 0.00 in 7 W/m2
15:39 48.9 °F 45.8 °F 30.49 in West 2.0 mph 6.0 mph 89 % 0.00 in 7 W/m2
15:41 48.9 °F 45.8 °F 30.49 in West 2.0 mph 4.0 mph 89 % 0.00 in 5 W/m2
15:46 48.7 °F 45.6 °F 30.49 in West 2.0 mph 5.0 mph 89 % 0.00 in 5 W/m2
15:48 48.6 °F 45.5 °F 30.49 in WSW 2.0 mph 5.0 mph 89 % 0.00 in 0 W/m2
15:53 48.4 °F 45.3 °F 30.49 in West 1.0 mph 4.0 mph 89 % 0.00 in 0 W/m2
15:54 48.4 °F 45.3 °F 30.49 in West 1.0 mph 4.0 mph 89 % 0.00 in 0 W/m2
15:59 48.0 °F 44.9 °F 30.49 in West 2.0 mph 5.0 mph 89 % 0.00 in 0 W/m2
16:04 47.7 °F 44.9 °F 30.49 in West 3.0 mph 5.0 mph 90 % 0.00 in 0 W/m2
16:06 47.7 °F 44.9 °F 30.49 in West 3.0 mph 5.0 mph 90 % 0.00 in 0 W/m2
16:08 47.5 °F 44.7 °F 30.49 in West 4.0 mph 6.0 mph 90 % 0.00 in 0 W/m2
16:12 47.3 °F 44.5 °F 30.49 in West 4.0 mph 5.0 mph 90 % 0.00 in 0 W/m2
16:17 47.1 °F 44.3 °F 30.49 in WNW 5.0 mph 7.0 mph 90 % 0.00 in 0 W/m2
16:21 46.9 °F 44.2 °F 30.48 in WNW 4.0 mph 7.0 mph 90 % 0.00 in 0 W/m2
16:26 46.8 °F 44.3 °F 30.48 in WNW 5.0 mph 8.0 mph 91 % 0.00 in 0 W/m2
16:29 46.8 °F 44.3 °F 30.48 in WNW 5.0 mph 7.0 mph 91 % 0.00 in 0 W/m2
16:31 46.6 °F 44.1 °F 30.49 in WNW 5.0 mph 7.0 mph 91 % 0.00 in 0 W/m2
16:35 46.6 °F 44.4 °F 30.48 in WNW 5.0 mph 8.0 mph 92 % 0.00 in 0 W/m2
16:36 46.8 °F 44.6 °F 30.49 in WNW 5.0 mph 7.0 mph 92 % 0.00 in 0 W/m2
16:41 46.8 °F 44.6 °F 30.49 in West 5.0 mph 7.0 mph 92 % 0.00 in 0 W/m2
16:46 46.8 °F 44.6 °F 30.49 in Calm   2.0 mph 92 % 0.00 in 0 W/m2
16:47 46.8 °F 44.6 °F 30.49 in Calm   2.0 mph 92 % 0.00 in 0 W/m2
16:52 46.8 °F 44.6 °F 30.49 in Calm     92 % 0.00 in 0 W/m2
16:57 46.6 °F 44.4 °F 30.49 in Calm   4.0 mph 92 % 0.00 in 0 W/m2
16:58 46.6 °F 44.4 °F 30.49 in Calm   4.0 mph 92 % 0.00 in 0 W/m2
17:03 46.4 °F 44.2 °F 30.49 in West 6.0 mph 8.0 mph 92 % 0.00 in 0 W/m2
17:04 46.4 °F 44.2 °F 30.49 in WNW 6.0 mph 10.0 mph 92 % 0.00 in 0 W/m2
17:06 46.2 °F 44.3 °F 30.49 in WNW 7.0 mph 11.0 mph 93 % 0.00 in 0 W/m2
17:11 46.6 °F 44.7 °F 30.49 in West 6.0 mph 9.0 mph 93 % 0.00 in 0 W/m2
17:16 46.9 °F 45.0 °F 30.48 in West 6.0 mph 9.0 mph 93 % 0.00 in 0 W/m2
17:17 46.9 °F 45.0 °F 30.48 in West 6.0 mph 9.0 mph 93 % 0.00 in 0 W/m2
17:18 46.9 °F 45.0 °F 30.48 in West 5.0 mph 9.0 mph 93 % 0.00 in 0 W/m2
17:23 46.9 °F 45.0 °F 30.48 in West 5.0 mph 8.0 mph 93 % 0.00 in 0 W/m2
17:27 46.9 °F 45.0 °F 30.49 in West 4.0 mph 7.0 mph 93 % 0.00 in 0 W/m2
17:31 46.9 °F 45.0 °F 30.49 in West 5.0 mph 8.0 mph 93 % 0.00 in 0 W/m2
17:34 46.9 °F 45.0 °F 30.49 in WNW 6.0 mph 8.0 mph 93 % 0.00 in 0 W/m2
17:39 47.1 °F 45.2 °F 30.48 in WNW 6.0 mph 8.0 mph 93 % 0.00 in 0 W/m2
17:44 47.1 °F 45.2 °F 30.48 in WNW 7.0 mph 11.0 mph 93 % 0.00 in 0 W/m2
17:49 47.3 °F 45.4 °F 30.49 in WNW 7.0 mph 12.0 mph 93 % 0.00 in 0 W/m2
17:51 47.5 °F 45.8 °F 30.49 in WNW 8.0 mph 12.0 mph 94 % 0.00 in 0 W/m2
17:52 47.5 °F 45.8 °F 30.49 in WNW 8.0 mph 11.0 mph 94 % 0.00 in 0 W/m2
17:57 47.7 °F 46.0 °F 30.49 in WNW 6.0 mph 8.0 mph 94 % 0.00 in 0 W/m2
17:58 47.7 °F 45.7 °F 30.49 in WNW 6.0 mph 8.0 mph 93 % 0.00 in 0 W/m2
17:59 47.7 °F 45.7 °F 30.49 in WNW 7.0 mph 11.0 mph 93 % 0.00 in 0 W/m2
18:03 47.8 °F 46.2 °F 30.49 in WNW 7.0 mph 11.0 mph 94 % 0.00 in 0 W/m2
18:07 47.8 °F 45.9 °F 30.49 in West 1.0 mph 5.0 mph 93 % 0.00 in 0 W/m2
18:09 47.7 °F 45.5 °F 30.49 in West 1.0 mph 5.0 mph 92 % 0.00 in 0 W/m2
18:15 47.3 °F 45.1 °F 30.49 in WNW 2.0 mph 5.0 mph 92 % 0.00 in 0 W/m2
18:17 47.3 °F 45.1 °F 30.49 in WNW 2.0 mph 5.0 mph 92 % 0.00 in 0 W/m2
18:21 47.3 °F 45.4 °F 30.49 in WNW 4.0 mph 8.0 mph 93 % 0.00 in 0 W/m2
18:22 47.3 °F 45.4 °F 30.49 in WNW 4.0 mph 8.0 mph 93 % 0.00 in 0 W/m2
18:27 47.3 °F 45.4 °F 30.49 in WNW 5.0 mph 8.0 mph 93 % 0.00 in 0 W/m2
18:28 47.3 °F 45.4 °F 30.49 in WNW 5.0 mph 8.0 mph 93 % 0.00 in 0 W/m2
18:33 47.5 °F 45.6 °F 30.49 in WNW 5.0 mph 8.0 mph 93 % 0.00 in 0 W/m2
18:34 47.5 °F 45.6 °F 30.49 in WNW 5.0 mph 8.0 mph 93 % 0.00 in 0 W/m2
18:39 47.5 °F 45.6 °F 30.49 in WNW 6.0 mph 10.0 mph 93 % 0.00 in 0 W/m2
18:41 47.7 °F 46.0 °F 30.49 in WNW 9.0 mph 12.0 mph 94 % 0.00 in 0 W/m2
18:46 48.0 °F 46.4 °F 30.49 in WNW 7.0 mph 12.0 mph 94 % 0.00 in 0 W/m2
18:48 48.0 °F 46.4 °F 30.49 in WNW 6.0 mph 9.0 mph 94 % 0.00 in 0 W/m2
18:51 48.0 °F 46.4 °F 30.49 in WNW 6.0 mph 8.0 mph 94 % 0.00 in 0 W/m2
18:56 48.0 °F 46.4 °F 30.49 in West 5.0 mph 7.0 mph 94 % 0.00 in 0 W/m2
18:58 48.0 °F 46.4 °F 30.49 in West 4.0 mph 6.0 mph 94 % 0.00 in 0 W/m2
19:00 48.0 °F 46.1 °F 30.49 in West 5.0 mph 9.0 mph 93 % 0.00 in 0 W/m2
19:04 48.0 °F 46.4 °F 30.49 in West 6.0 mph 8.0 mph 94 % 0.00 in 0 W/m2
19:08 48.0 °F 46.1 °F 30.49 in West 3.0 mph 8.0 mph 93 % 0.00 in 0 W/m2
19:11 48.0 °F 46.1 °F 30.49 in West 4.0 mph 8.0 mph 93 % 0.00 in 0 W/m2
19:16 47.8 °F 45.9 °F 30.49 in West 4.0 mph 6.0 mph 93 % 0.00 in 0 W/m2
19:17 47.8 °F 45.9 °F 30.49 in West 4.0 mph 7.0 mph 93 % 0.00 in 0 W/m2
19:22 47.8 °F 45.9 °F 30.49 in WNW 4.0 mph 6.0 mph 93 % 0.00 in 0 W/m2
19:27 47.7 °F 45.7 °F 30.49 in West 4.0 mph 7.0 mph 93 % 0.00 in 0 W/m2
19:32 47.8 °F 46.2 °F 30.49 in West 9.0 mph 15.0 mph 94 % 0.00 in 0 W/m2
19:33 47.8 °F 46.2 °F 30.49 in West 9.0 mph 15.0 mph 94 % 0.00 in 0 W/m2
19:38 48.0 °F 46.4 °F 30.49 in West 6.0 mph 10.0 mph 94 % 0.00 in 0 W/m2
19:40 48.0 °F 46.4 °F 30.49 in West 6.0 mph 9.0 mph 94 % 0.00 in 0 W/m2
19:45 48.0 °F 46.4 °F 30.49 in West 4.0 mph 6.0 mph 94 % 0.00 in 0 W/m2
19:49 48.0 °F 46.1 °F 30.49 in West 4.0 mph 6.0 mph 93 % 0.00 in 0 W/m2
19:51 48.0 °F 46.1 °F 30.49 in WNW 4.0 mph 6.0 mph 93 % 0.00 in 0 W/m2
19:55 47.8 °F 45.9 °F 30.49 in WNW 5.0 mph 6.0 mph 93 % 0.00 in 0 W/m2
19:57 47.8 °F 45.9 °F 30.49 in WNW 5.0 mph 6.0 mph 93 % 0.00 in 0 W/m2
20:02 47.8 °F 46.2 °F 30.49 in WNW 4.0 mph 6.0 mph 94 % 0.00 in 0 W/m2
20:06 47.7 °F 45.7 °F 30.49 in WNW 5.0 mph 7.0 mph 93 % 0.00 in 0 W/m2
20:09 47.7 °F 46.0 °F 30.49 in WNW 5.0 mph 7.0 mph 94 % 0.00 in 0 W/m2
20:12 47.7 °F 45.7 °F 30.49 in WNW 5.0 mph 7.0 mph 93 % 0.00 in 0 W/m2
20:14 47.7 °F 45.7 °F 30.49 in WNW 4.0 mph 7.0 mph 93 % 0.00 in 0 W/m2
20:20 47.7 °F 46.0 °F 30.49 in West 4.0 mph 6.0 mph 94 % 0.00 in 0 W/m2
20:25 47.7 °F 46.0 °F 30.49 in WNW 5.0 mph 7.0 mph 94 % 0.00 in 0 W/m2
20:27 47.5 °F 45.8 °F 30.49 in WNW 5.0 mph 7.0 mph 94 % 0.00 in 0 W/m2
20:32 47.7 °F 46.0 °F 30.50 in WNW 6.0 mph 9.0 mph 94 % 0.00 in 0 W/m2
20:37 47.8 °F 46.2 °F 30.50 in West 7.0 mph 13.0 mph 94 % 0.00 in 0 W/m2
20:42 47.8 °F 46.2 °F 30.50 in West 4.0 mph 7.0 mph 94 % 0.00 in 0 W/m2
20:44 47.8 °F 46.2 °F 30.50 in WNW 3.0 mph 5.0 mph 94 % 0.00 in 0 W/m2
20:49 47.8 °F 46.2 °F 30.50 in WNW 4.0 mph 9.0 mph 94 % 0.00 in 0 W/m2
20:53 47.8 °F 46.2 °F 30.50 in West 4.0 mph 5.0 mph 94 % 0.00 in 0 W/m2
20:56 47.8 °F 46.2 °F 30.50 in West 4.0 mph 6.0 mph 94 % 0.00 in 0 W/m2
21:01 47.7 °F 45.7 °F 30.50 in WNW 2.0 mph 3.0 mph 93 % 0.00 in 0 W/m2
21:03 47.7 °F 46.0 °F 30.50 in WNW 1.0 mph 3.0 mph 94 % 0.00 in 0 W/m2
21:04 47.7 °F 46.0 °F 30.50 in WNW 1.0 mph 3.0 mph 94 % 0.00 in 0 W/m2
21:09 47.7 °F 46.0 °F 30.50 in WNW 1.0 mph 2.0 mph 94 % 0.00 in 0 W/m2
21:14 47.5 °F 45.8 °F 30.50 in WNW 3.0 mph 5.0 mph 94 % 0.00 in 0 W/m2
21:16 47.5 °F 45.8 °F 30.50 in WNW 2.0 mph 5.0 mph 94 % 0.00 in 0 W/m2
21:21 47.5 °F 45.8 °F 30.50 in Calm     94 % 0.00 in 0 W/m2
21:25 47.5 °F 45.8 °F 30.50 in Calm     94 % 0.00 in 0 W/m2
21:30 47.1 °F 45.5 °F 30.50 in WNW 1.0 mph 2.0 mph 94 % 0.00 in 0 W/m2
21:35 47.1 °F 45.5 °F 30.49 in Calm   2.0 mph 94 % 0.00 in 0 W/m2
21:40 47.1 °F 45.5 °F 30.49 in Calm     94 % 0.00 in 0 W/m2
21:41 47.1 °F 45.5 °F 30.50 in Calm     94 % 0.00 in 0 W/m2
21:51 46.9 °F 45.3 °F 30.49 in Calm     94 % 0.00 in 0 W/m2
21:56 46.9 °F 45.3 °F 30.49 in Calm     94 % 0.00 in 0 W/m2
21:57 47.1 °F 45.5 °F 30.49 in Calm     94 % 0.00 in 0 W/m2
22:01 47.1 °F 45.5 °F 30.49 in Calm     94 % 0.00 in 0 W/m2
22:04 47.1 °F 45.8 °F 30.49 in Calm     95 % 0.00 in 0 W/m2
22:09 47.3 °F 45.9 °F 30.49 in Calm   1.0 mph 95 % 0.00 in 0 W/m2
22:13 47.3 °F 45.9 °F 30.49 in WNW 1.0 mph 4.0 mph 95 % 0.00 in 0 W/m2
22:18 47.3 °F 45.7 °F 30.49 in Calm     94 % 0.00 in 0 W/m2
22:19 47.1 °F 45.5 °F 30.49 in Calm     94 % 0.00 in 0 W/m2
22:21 47.1 °F 45.5 °F 30.49 in Calm     94 % 0.00 in 0 W/m2
22:26 46.8 °F 45.1 °F 30.49 in Calm   2.0 mph 94 % 0.00 in 0 W/m2
22:27 46.8 °F 45.1 °F 30.49 in Calm   2.0 mph 94 % 0.00 in 0 W/m2
22:32 46.6 °F 44.9 °F 30.49 in Calm     94 % 0.00 in 0 W/m2
22:37 46.6 °F 44.9 °F 30.49 in Calm     94 % 0.00 in 0 W/m2
22:38 46.6 °F 44.9 °F 30.49 in Calm     94 % 0.00 in 0 W/m2
22:42 46.6 °F 44.9 °F 30.49 in Calm     94 % 0.00 in 0 W/m2
22:44 46.6 °F 44.9 °F 30.49 in Calm     94 % 0.00 in 0 W/m2
22:49 46.6 °F 44.9 °F 30.49 in Calm     94 % 0.00 in 0 W/m2
22:51 46.6 °F 44.9 °F 30.49 in Calm     94 % 0.00 in 0 W/m2
22:54 46.6 °F 44.9 °F 30.49 in Calm   2.0 mph 94 % 0.00 in 0 W/m2
22:58 46.6 °F 44.9 °F 30.48 in West 4.0 mph 6.0 mph 94 % 0.00 in 0 W/m2
23:03 46.8 °F 45.4 °F 30.48 in West 1.0 mph 3.0 mph 95 % 0.00 in 0 W/m2
23:04 46.8 °F 45.4 °F 30.48 in Calm   1.0 mph 95 % 0.00 in 0 W/m2
23:10 46.6 °F 44.9 °F 30.48 in West 1.0 mph 3.0 mph 94 % 0.00 in 0 W/m2
23:11 46.6 °F 44.9 °F 30.48 in West 1.0 mph 3.0 mph 94 % 0.00 in 0 W/m2
23:16 46.6 °F 45.2 °F 30.48 in West 1.0 mph 4.0 mph 95 % 0.00 in 0 W/m2
23:18 46.6 °F 45.2 °F 30.48 in West 1.0 mph 4.0 mph 95 % 0.00 in 0 W/m2
23:24 46.8 °F 45.4 °F 30.48 in West 3.0 mph 6.0 mph 95 % 0.00 in 0 W/m2
23:26 46.9 °F 45.6 °F 30.48 in West 3.0 mph 5.0 mph 95 % 0.00 in 0 W/m2
23:31 47.1 °F 45.8 °F 30.48 in West 1.0 mph 3.0 mph 95 % 0.00 in 0 W/m2
23:33 47.1 °F 45.8 °F 30.48 in Calm   1.0 mph 95 % 0.00 in 0 W/m2
23:34 47.1 °F 45.8 °F 30.48 in Calm   1.0 mph 95 % 0.00 in 0 W/m2
23:39 47.1 °F 45.8 °F 30.48 in West 2.0 mph 5.0 mph 95 % 0.00 in 0 W/m2
23:40 47.3 °F 45.9 °F 30.48 in WNW 3.0 mph 5.0 mph 95 % 0.00 in 0 W/m2
23:45 47.5 °F 46.1 °F 30.48 in WSW 2.0 mph 4.0 mph 95 % 0.00 in 0 W/m2
23:46 47.5 °F 46.1 °F 30.48 in WSW 1.0 mph 4.0 mph 95 % 0.00 in 0 W/m2
23:51 47.7 °F 46.3 °F 30.48 in WSW 3.0 mph 5.0 mph 95 % 0.00 in 0 W/m2
23:53 47.7 °F 46.3 °F 30.48 in WSW 3.0 mph 5.0 mph 95 % 0.00 in 0 W/m2
23:58 47.7 °F 46.3 °F 30.48 in WSW 4.0 mph 8.0 mph 95 % 0.00 in 0 W/m2
Delerius-Weather
Compliments of Weather Underground - 3 mb

Data updates at regular intervals.